Ocracoke, NC

10:11 PM EST on December 24, 2014 (GMT -0500)
The Ocracoke Harbor Inn/Silver Lake | Change Station
CLOSE
Current Station
Personal Weather Station
Location: Ocracoke, NC
Elevation: 15 ft
Nearby Weather Stations

Elev 15 ft 35.11 °N, 75.98 °W | Updated 0 second ago

Overcast
Overcast
67.8 °F
Feels Like 67.8 °F
N
12.0
Wind Variable Wind from WSW
Gusts 12.0 mph

Today
High -- | Low -- °F
--% Chance of Precip.
Yesterday
High -- | Low -- °F
Precip. -- in
7:09 AM 4:57 PM
Waxing Crescent, 13% visible
Pressure 29.80 in
Visibility 4.0 miles
Clouds Few 1400 ft
Mostly Cloudy 3400 ft
Overcast 5500 ft
Dew Point 67 °F
Humidity 98%
Rainfall 1.01 in
Snow Depth Not available.
UV 16.0 out of 12
Pollen .10 out of 12
Air Quality Not available.
Flu Activity Not available.
METAR KHSE 250251Z AUTO 23006G16KT 4SM -RA BR FEW014 BKN034 OVC055 17/17 A2980 RMK AO2 RAB33 SLP090 P0001 60001 T01720172 58019 TSNO

More Conditions Fewer Conditions

Pressure 29.80 in
Visibility 4.0 miles
Clouds Few 1400 ft
Mostly Cloudy 3400 ft
Overcast 5500 ft
Dew Point 67 °F
Humidity 98%
Rainfall 1.01 in
Snow Depth Not available.
UV 16.0 out of 12
Pollen .10 out of 12
Air Quality Not available.
Flu Activity Not available.
METAR KHSE 250251Z AUTO 23006G16KT 4SM -RA BR FEW014 BKN034 OVC055 17/17 A2980 RMK AO2 RAB33 SLP090 P0001 60001 T01720172 58019 TSNO

More Conditions Fewer Conditions

10-Day Weather Forecast

Almanac

Astronomy

Dec. 24, 2014 Rise Set
Actual Time
Civil Twilight
Nautical Twilight
Astronomical Twilight
Moon
Length of Visible Light
Length of Day
Tomorrow will be .
, % of the Moon is Illuminated

Today's Extremes

State Highs State Lows

Community

WunderPhotos

Upload Photos

1,780,224 photos uploaded!

WunderBlogs® & News

Nearby

Air Quality

  Air Quality AQ Index Pollutant
Not available.

Snow Depth

Station Depth Elevation

Earthquake Activity

City Distance Mag. Time & Date
Minimum magnitude displayed is 2.5.

Coastal Water Temperatures

Place Temperature

Nearby Weather Stations